Daikoku — JD3247 — position and weather

sailwx.info

Track history (hours):
 
Tides and Currents Weather Stations Pressure Air Temp Water Temp Dewpoint Dewpoint Depression Visibility Wind Speed Wind Dir Waves Ship Positions

Daikoku

Last reported at 2016-May-30 08:25 UTC. Time now 2016-May-30 20:24 UTC.
Position N 34°37' E 135°01'.

Length 95 m; draft 3.7 m.

Type: Cargo ship. MMSI: 431003009.

Date/timePositionNaut miles runAvg speedWind from/ knotsBaromVisibWave heightAir tempDewpointWater temp
2016-May-30 08:25N 34°37' E 135°01'1011.4
2016-May-30 07:33N 34°37' E 135°13'3 2.7
2016-May-30 06:31N 34°39' E 135°15'0 0.3
2016-May-30 05:33N 34°39' E 135°15'8 8.4
2016-May-30 04:33N 34°38' E 135°25'2 2.2
2016-May-30 03:32N 34°38' E 135°22'4 3.6
2016-May-30 02:33N 34°39' E 135°19'2 2.5
2016-May-30 01:33N 34°41' E 135°16'4 3.8
2016-May-30 00:30N 34°37' E 135°15'0 0.0
2016-May-29 23:30N 34°37' E 135°15'1 0.5
2016-May-29 22:33N 34°36' E 135°15'1110.7
2016-May-29 21:32N 34°37' E 135°01'  
2016-May-27 08:33N 34°27' E 135°07'1313.2
2016-May-27 07:33N 34°37' E 135°17'4 4.3
2016-May-27 06:32N 34°41' E 135°17'0 0.0
2016-May-27 05:32N 34°41' E 135°17'0 0.2
2016-May-27 04:33N 34°41' E 135°17'3 2.9
2016-May-27 03:33N 34°39' E 135°19'4 3.3
2016-May-27 02:29N 34°39' E 135°15'0 0.0
2016-May-27 01:29N 34°39' E 135°15'0 0.0
2016-May-27 00:29N 34°39' E 135°15'1 1.2
2016-May-26 23:33N 34°39' E 135°16'2 2.3
2016-May-26 22:32N 34°36' E 135°15'0 0.0
2016-May-26 21:32N 34°36' E 135°15'7 6.8
2016-May-26 20:33N 34°34' E 135°08'1312.3
2016-May-26 19:32N 34°34' E 134°52'  
2016-May-23 11:31N 34°37' E 135°01'1111.5
2016-May-23 10:33N 34°37' E 135°15'2 2.3
2016-May-23 09:33N 34°39' E 135°15'0 0.0
2016-May-23 08:27N 34°39' E 135°15'0 0.0
2016-May-23 07:27N 34°39' E 135°15'0 0.0
2016-May-23 06:33N 34°39' E 135°15'0 0.5
2016-May-23 05:33N 34°39' E 135°15'3 3.4
2016-May-23 04:33N 34°39' E 135°19'0 0.0
2016-May-23 03:33N 34°39' E 135°19'2 2.2
2016-May-23 02:34N 34°41' E 135°17'4 4.1
2016-May-23 01:33N 34°37' E 135°16'7 7.3
2016-May-23 00:33N 34°35' E 135°07'9 9.3
2016-May-22 23:33N 34°36' E 134°56'  
2016-May-20 10:09N 34°21' E 134°59'610.5
2016-May-20 09:33N 34°26' E 135°04'1110.8
2016-May-20 08:33N 34°33' E 135°14'  
Track history (hours):
 
Tides and Currents Weather Stations Pressure Air Temp Water Temp Dewpoint Dewpoint Depression Visibility Wind Speed Wind Dir Waves Ship Positions

Daikoku

Last reported at 2016-May-30 08:25 UTC. Time now 2016-May-30 20:24 UTC.
Position N 34°37' E 135°01'.

Length 95 m; draft 3.7 m.

Type: Cargo ship. MMSI: 431003009.

Date/timePositionNaut miles runAvg speedWind from/ knotsBaromVisibWave heightAir tempDewpointWater temp
2016-May-30 08:25N 34°37' E 135°01'1011.4
2016-May-30 07:33N 34°37' E 135°13'3 2.7
2016-May-30 06:31N 34°39' E 135°15'0 0.3
2016-May-30 05:33N 34°39' E 135°15'8 8.4
2016-May-30 04:33N 34°38' E 135°25'2 2.2
2016-May-30 03:32N 34°38' E 135°22'4 3.6
2016-May-30 02:33N 34°39' E 135°19'2 2.5
2016-May-30 01:33N 34°41' E 135°16'4 3.8
2016-May-30 00:30N 34°37' E 135°15'0 0.0
2016-May-29 23:30N 34°37' E 135°15'1 0.5
2016-May-29 22:33N 34°36' E 135°15'1110.7
2016-May-29 21:32N 34°37' E 135°01'  
2016-May-27 08:33N 34°27' E 135°07'1313.2
2016-May-27 07:33N 34°37' E 135°17'4 4.3
2016-May-27 06:32N 34°41' E 135°17'0 0.0
2016-May-27 05:32N 34°41' E 135°17'0 0.2
2016-May-27 04:33N 34°41' E 135°17'3 2.9
2016-May-27 03:33N 34°39' E 135°19'4 3.3
2016-May-27 02:29N 34°39' E 135°15'0 0.0
2016-May-27 01:29N 34°39' E 135°15'0 0.0
2016-May-27 00:29N 34°39' E 135°15'1 1.2
2016-May-26 23:33N 34°39' E 135°16'2 2.3
2016-May-26 22:32N 34°36' E 135°15'0 0.0
2016-May-26 21:32N 34°36' E 135°15'7 6.8
2016-May-26 20:33N 34°34' E 135°08'1312.3
2016-May-26 19:32N 34°34' E 134°52'  
2016-May-23 11:31N 34°37' E 135°01'1111.5
2016-May-23 10:33N 34°37' E 135°15'2 2.3
2016-May-23 09:33N 34°39' E 135°15'0 0.0
2016-May-23 08:27N 34°39' E 135°15'0 0.0
2016-May-23 07:27N 34°39' E 135°15'0 0.0
2016-May-23 06:33N 34°39' E 135°15'0 0.5
2016-May-23 05:33N 34°39' E 135°15'3 3.4
2016-May-23 04:33N 34°39' E 135°19'0 0.0
2016-May-23 03:33N 34°39' E 135°19'2 2.2
2016-May-23 02:34N 34°41' E 135°17'4 4.1
2016-May-23 01:33N 34°37' E 135°16'7 7.3
2016-May-23 00:33N 34°35' E 135°07'9 9.3
2016-May-22 23:33N 34°36' E 134°56'  
2016-May-20 10:09N 34°21' E 134°59'610.5
2016-May-20 09:33N 34°26' E 135°04'1110.8
2016-May-20 08:33N 34°33' E 135°14'  

Dump ship's entire track history